メインページ
METAR-TAF:

METAR-TAF

空港 :

シアトル / タコマ, ワシントン, アメリカ合衆国

シアトル・タコマ国際空港

緯度: 47-26-41N, 経度: 122-18-49W, 海抜: 130m

現時点の気象観測

当レポートは13分前の10:53(UTC)に作成
無風
気温 11°C
湿度 82%
気圧 1003 hPa
視程: 16.1km
高度2600ftの雲は散在している
高度4900ftの千切れ雲あり
高度6500ftの曇り

METAR: KSEA 201053Z 00000KT 10SM SCT026 BKN049 OVC065 11/08 A2963 RMK AO2 RAB13E27 SLP040 P0000 T01110083 $

時間: 04:06 (11:06 UTC)

予報

当レポートは2時間2分前の09:04(UTC)に作成
予報は20日の 09時(UTC)から 21日の 12時(UTC)まで有効
の風 4kt
視程: 10km
高度2500ftの雲は散在している
高度4500ftの千切れ雲あり
20日の 09時(UTC)から 20日の 12時(UTC)まで一時的に
高度2500ftの千切れ雲あり
高度4500ftの千切れ雲あり
20日の 1200時(UTC)から
変向風 3kt
視程: 10km
高度1500ftの千切れ雲あり
高度2500ftの曇り
近辺でにわか雨
20日の 1800時(UTC)から
の風 6kt
視程: 10km
高度2500ftの雲は散在している
高度5000ftの千切れ雲あり
21日の 0400時(UTC)から
の風 6kt
視程: 10km
高度5000ftの千切れ雲あり

TAF: KSEA 200904Z 2009/2112 19004KT P6SM SCT025 BKN045 TEMPO 2009/2012 BKN025 BKN045 FM201200 VRB03KT P6SM VCSH BKN015 OVC025 FM201800 36006KT P6SM SCT025 BKN050 FM210400 19006KT P6SM BKN050

4,000以上の空港の気象観測と天気予報(METAR報とTAF報)

利用可能な観測所は地図上に黄色い丸と赤い丸で示す。

丸の上にカーソルを重ねると観測所名を参照できる。

次にクリックすると気象観測と天気予報を参照できる。

マップの切り替え:黒色「×」印の緑ボタンをクリックして拡大、「-」印の緑ボタンをクリックして縮小、緑色の三角印をクリックして隣りの地図に切り替え


METAR-TAF: